Terminal Aerodrome Forecast
Issued by NWS

Current Version | Previous Version | Graphics & Text | Print | Product List | Glossary On
Versions: 1 2 3 4 5 6 7 8 9 10 11 12 13 14 15 16 17 18 19 20 21 22 23 24
000
FTUS41 KILN 191700
TAFLCK
TAF
KLCK 191740Z 1918/2018 20008KT P6SM SCT040
     FM200200 20004KT P6SM VCTS BKN040CB
     FM200600 19003KT P6SM SCT040
     FM200800 19003KT 5SM BR FEW015
     FM201400 22006KT P6SM SCT035=

USA.gov is the U.S. government's official web portal to all federal, state and local government web resources and services.